Time;durP1;ratioP1;P1;durP2;ratioP2;P2;SDS_P1;SDS_P2;PMS_P1;PMS_P2;Temp;Humidity;BMP_temperature;BMP_pressure;BME280_temperature;BME280_humidity;BME280_pressure;Samples;Min_cycle;Max_cycle;Signal;HPM_P1;HPM_P2
2021/11/09 00:01:09;;;;;;;59.55;3.85;;;2.50;1.00;;;;;;5144675;27;20314;-67
2021/11/09 00:03:43;;;;;;;58.78;3.20;;;2.50;1.00;;;;;;5144783;27;20199;-67
2021/11/09 00:06:17;;;;;;;59.17;4.18;;;2.50;1.00;;;;;;5144959;27;20207;-67
2021/11/09 00:08:48;;;;;;;58.55;2.97;;;2.40;1.00;;;;;;5144214;27;20693;-67
2021/11/09 00:11:15;;;;;;;58.60;3.00;;;2.40;1.00;;;;;;5142608;27;20241;-66
2021/11/09 00:13:44;;;;;;;58.70;3.20;;;2.40;1.00;;;;;;5145134;27;20226;-67
2021/11/09 00:16:11;;;;;;;59.38;3.92;;;2.40;1.00;;;;;;5145894;27;20282;-68
2021/11/09 00:18:39;;;;;;;58.47;2.92;;;2.30;1.00;;;;;;5145254;27;20202;-67
2021/11/09 00:21:06;;;;;;;58.38;2.90;;;2.30;1.00;;;;;;5145161;27;20298;-67
2021/11/09 00:23:33;;;;;;;58.47;3.00;;;2.30;1.00;;;;;;5145625;27;20267;-67
2021/11/09 00:26:00;;;;;;;58.58;3.05;;;2.20;1.00;;;;;;5142911;27;20235;-67
2021/11/09 00:28:26;;;;;;;58.90;3.28;;;2.20;1.00;;;;;;5144486;27;20706;-68
2021/11/09 00:30:55;;;;;;;58.67;3.15;;;2.10;1.00;;;;;;5143919;27;20703;-67
2021/11/09 00:33:22;;;;;;;58.67;3.30;;;2.10;1.00;;;;;;5145791;27;20214;-67
2021/11/09 00:35:49;;;;;;;58.95;3.50;;;2.00;1.00;;;;;;5144526;27;20199;-67
2021/11/09 00:38:16;;;;;;;58.47;3.20;;;2.00;1.00;;;;;;5143702;27;20207;-67
2021/11/09 00:40:44;;;;;;;58.58;3.13;;;1.90;1.00;;;;;;5143856;27;20867;-68
2021/11/09 00:43:13;;;;;;;58.47;3.00;;;1.90;1.00;;;;;;5143315;27;20226;-67
2021/11/09 00:45:41;;;;;;;58.30;3.10;;;1.80;1.00;;;;;;5144861;27;20258;-68
2021/11/09 00:48:10;;;;;;;58.60;3.30;;;1.80;1.00;;;;;;5145393;27;20203;-67
2021/11/09 00:50:38;;;;;;;58.75;3.20;;;1.80;1.00;;;;;;5145092;27;20317;-67
2021/11/09 00:53:07;;;;;;;58.67;3.20;;;1.80;1.00;;;;;;5144849;27;20235;-67
2021/11/09 00:55:34;;;;;;;58.65;3.20;;;1.80;1.00;;;;;;5144696;27;20195;-67
2021/11/09 00:58:01;;;;;;;58.70;3.22;;;1.90;1.00;;;;;;5144189;27;20241;-67
2021/11/09 01:00:32;;;;;;;60.53;4.30;;;1.90;1.00;;;;;;5144394;27;20290;-67
2021/11/09 01:03:00;;;;;;;58.88;3.40;;;2.00;1.00;;;;;;5144645;27;20275;-67
2021/11/09 01:05:30;;;;;;;58.55;3.30;;;2.00;1.00;;;;;;5143043;27;20278;-67
2021/11/09 01:07:58;;;;;;;58.45;3.13;;;2.00;1.00;;;;;;5144244;27;20209;-68
2021/11/09 01:10:28;;;;;;;58.60;3.50;;;2.10;1.00;;;;;;5144108;27;20291;-68
2021/11/09 01:12:56;;;;;;;58.80;3.70;;;2.10;1.00;;;;;;5143273;27;20233;-68
2021/11/09 01:15:24;;;;;;;58.50;3.20;;;2.10;1.00;;;;;;5144206;27;20210;-67
2021/11/09 01:17:51;;;;;;;58.70;3.28;;;2.20;1.00;;;;;;5143353;27;20270;-67
2021/11/09 01:20:22;;;;;;;58.47;3.05;;;2.30;1.00;;;;;;5144451;27;20270;-67
2021/11/09 01:22:53;;;;;;;58.38;3.03;;;2.30;1.00;;;;;;5145238;27;20199;-67
2021/11/09 01:25:21;;;;;;;60.33;3.50;;;2.40;1.00;;;;;;5144050;27;20207;-67
2021/11/09 01:27:48;;;;;;;58.58;3.17;;;2.40;1.00;;;;;;5144615;27;20209;-67
2021/11/09 01:30:17;;;;;;;58.45;3.22;;;2.50;1.00;;;;;;5144030;27;20482;-68
2021/11/09 01:32:44;;;;;;;58.58;2.90;;;2.50;1.00;;;;;;5143582;27;20207;-68
2021/11/09 01:35:13;;;;;;;62.60;4.32;;;2.50;1.00;;;;;;5143747;27;20230;-68
2021/11/09 01:37:40;;;;;;;58.58;2.90;;;2.50;1.00;;;;;;5144000;27;20213;-68
2021/11/09 01:40:11;;;;;;;58.80;3.40;;;2.60;1.00;;;;;;5142839;27;20222;-68
2021/11/09 01:42:38;;;;;;;58.55;3.35;;;2.60;1.00;;;;;;5142936;27;20205;-68
2021/11/09 01:45:08;;;;;;;58.45;3.00;;;2.50;1.00;;;;;;5142452;27;20225;-68
2021/11/09 01:47:35;;;;;;;58.58;3.00;;;2.50;1.00;;;;;;5141769;27;20205;-67
2021/11/09 01:50:03;;;;;;;58.17;2.92;;;2.50;1.00;;;;;;5143602;27;20203;-68
2021/11/09 01:52:30;;;;;;;58.80;3.20;;;2.50;1.00;;;;;;5142615;27;20230;-68
2021/11/09 01:54:57;;;;;;;58.45;3.05;;;2.50;1.00;;;;;;5140870;27;20258;-68
2021/11/09 01:57:25;;;;;;;59.00;3.50;;;2.40;1.00;;;;;;5143691;27;20227;-68
2021/11/09 01:59:53;;;;;;;58.65;2.92;;;2.40;1.00;;;;;;5143094;27;20207;-68
2021/11/09 02:02:20;;;;;;;58.67;3.00;;;2.40;1.00;;;;;;5143930;27;20202;-68
2021/11/09 02:04:47;;;;;;;58.40;3.00;;;2.50;1.00;;;;;;5142880;27;20219;-68
2021/11/09 02:07:14;;;;;;;58.50;3.35;;;2.50;1.00;;;;;;5138036;27;20410;-67
2021/11/09 02:09:41;;;;;;;58.47;2.90;;;2.50;1.00;;;;;;5121489;28;20231;-68
2021/11/09 02:12:08;;;;;;;58.28;2.83;;;2.50;1.00;;;;;;5121355;28;20230;-68
2021/11/09 02:14:36;;;;;;;59.10;3.60;;;2.60;1.00;;;;;;5121836;28;20289;-68
2021/11/09 02:17:05;;;;;;;58.38;2.83;;;2.50;1.00;;;;;;5121275;28;20238;-68
2021/11/09 02:19:32;;;;;;;58.28;3.00;;;2.50;1.00;;;;;;5122058;28;20263;-68
2021/11/09 02:22:00;;;;;;;57.92;3.22;;;2.50;1.00;;;;;;5121686;28;20307;-68
2021/11/09 02:24:27;;;;;;;58.33;3.10;;;2.50;1.00;;;;;;5123732;28;20203;-68
2021/11/09 02:26:54;;;;;;;58.72;3.30;;;2.50;1.00;;;;;;5126983;28;20239;-68
2021/11/09 02:29:21;;;;;;;58.05;3.20;;;2.50;1.00;;;;;;5131312;27;20239;-68
2021/11/09 02:31:48;;;;;;;58.47;2.88;;;2.50;1.00;;;;;;5146713;27;20310;-67
2021/11/09 02:34:15;;;;;;;58.38;3.30;;;2.50;1.00;;;;;;5145987;27;20226;-67
2021/11/09 02:36:42;;;;;;;58.65;3.10;;;2.60;1.00;;;;;;5146920;27;20199;-68
2021/11/09 02:39:11;;;;;;;59.92;3.70;;;2.50;1.00;;;;;;5147061;27;20226;-68
2021/11/09 02:41:38;;;;;;;58.33;3.20;;;2.60;1.00;;;;;;5146002;27;20227;-68
2021/11/09 02:44:06;;;;;;;58.10;3.00;;;2.60;1.00;;;;;;5145429;27;20207;-68
2021/11/09 02:46:45;;;;;;;58.58;3.00;;;2.70;1.00;;;;;;5145467;27;20227;-68
2021/11/09 02:49:19;;;;;;;59.47;4.47;;;2.60;1.00;;;;;;5146274;27;20226;-68
2021/11/09 02:51:48;;;;;;;58.72;3.00;;;2.60;1.00;;;;;;5146996;27;20223;-68
2021/11/09 02:54:21;;;;;;;58.47;3.00;;;2.60;1.00;;;;;;5146468;27;20248;-68
2021/11/09 02:56:52;;;;;;;58.40;2.90;;;2.70;1.00;;;;;;5147406;27;20206;-68
2021/11/09 03:02:05;;;;;;;58.47;3.20;;;2.70;1.00;;;;;;5146426;27;20219;-67
2021/11/09 03:04:43;;;;;;;58.35;3.10;;;2.80;1.00;;;;;;5146605;27;20192;-68
2021/11/09 03:07:12;;;;;;;58.58;3.08;;;2.80;1.00;;;;;;5146873;27;20571;-68
2021/11/09 03:09:52;;;;;;;58.60;3.00;;;2.80;1.00;;;;;;5147816;27;20211;-67
2021/11/09 03:12:20;;;;;;;58.55;3.00;;;2.80;1.00;;;;;;5147759;27;20228;-68
2021/11/09 03:14:48;;;;;;;59.80;3.90;;;2.80;1.00;;;;;;5146437;27;20207;-68
2021/11/09 03:17:17;;;;;;;58.47;3.40;;;2.80;1.00;;;;;;5145923;27;20280;-68
2021/11/09 03:19:48;;;;;;;58.78;3.15;;;2.80;1.00;;;;;;5146167;27;20187;-68
2021/11/09 03:44:42;;;;;;;58.28;3.20;;;2.20;1.00;;;;;;5126123;28;20226;-68
2021/11/09 03:47:14;;;;;;;58.47;3.53;;;2.20;1.00;;;;;;5125992;28;20672;-68
2021/11/09 03:49:43;;;;;;;58.45;3.10;;;2.10;1.00;;;;;;5126528;28;20679;-68
2021/11/09 03:52:14;;;;;;;58.45;3.33;;;2.10;1.00;;;;;;5126094;28;20852;-68
2021/11/09 03:54:41;;;;;;;58.35;2.90;;;2.10;1.00;;;;;;5125739;28;20254;-68
2021/11/09 03:57:14;;;;;;;58.17;3.20;;;2.00;1.00;;;;;;5127639;27;20202;-68
2021/11/09 03:59:52;;;;;;;58.58;2.90;;;1.90;1.00;;;;;;5146917;27;20211;-68
2021/11/09 04:02:25;;;;;;;58.67;3.20;;;1.80;1.00;;;;;;5146445;27;20198;-68
2021/11/09 04:04:54;;;;;;;60.13;3.65;;;1.80;1.00;;;;;;5146959;27;20210;-68
2021/11/09 04:07:27;;;;;;;58.28;3.00;;;1.70;1.00;;;;;;5145675;27;20213;-68
2021/11/09 04:10:04;;;;;;;58.13;3.20;;;1.70;1.00;;;;;;5145410;27;20219;-68
2021/11/09 04:12:41;;;;;;;58.42;3.22;;;1.60;1.00;;;;;;5145365;27;20213;-68
2021/11/09 04:15:20;;;;;;;58.50;3.00;;;1.60;1.00;;;;;;5145472;27;20184;-68
2021/11/09 04:18:02;;;;;;;58.55;3.05;;;1.50;1.00;;;;;;5145240;27;20631;-68
2021/11/09 04:20:36;;;;;;;58.50;3.03;;;1.40;1.00;;;;;;5145386;27;20227;-68
2021/11/09 04:26:03;;;;;;;58.38;3.10;;;1.40;1.00;;;;;;5146160;27;20275;-68
2021/11/09 04:28:41;;;;;;;58.55;3.08;;;1.40;1.00;;;;;;5143250;27;20206;-68
2021/11/09 04:31:40;;;;;;;58.70;3.17;;;1.30;1.00;;;;;;5125456;28;20391;-68
2021/11/09 05:01:03;;;;;;;58.17;3.10;;;0.90;1.00;;;;;;5122901;28;20606;-68
2021/11/09 05:10:22;;;;;;;58.45;3.30;;;0.70;1.00;;;;;;5144033;27;20217;-68
2021/11/09 05:12:49;;;;;;;58.70;3.10;;;0.60;1.00;;;;;;5145003;27;20210;-68
2021/11/09 05:15:16;;;;;;;58.60;2.95;;;0.60;1.00;;;;;;5143876;27;20288;-68
2021/11/09 05:17:44;;;;;;;58.60;2.90;;;0.60;1.00;;;;;;5144261;27;20305;-68
2021/11/09 05:20:11;;;;;;;58.08;3.05;;;0.60;1.00;;;;;;5143840;27;20286;-68
2021/11/09 05:22:39;;;;;;;58.22;3.63;;;0.60;1.00;;;;;;5144272;27;20209;-68
2021/11/09 05:25:07;;;;;;;58.35;2.95;;;0.50;1.00;;;;;;5144235;27;20210;-68
2021/11/09 05:27:34;;;;;;;57.70;3.10;;;0.50;1.00;;;;;;5144228;27;20203;-68
2021/11/09 05:30:01;;;;;;;58.08;3.50;;;0.50;1.00;;;;;;5144014;27;20215;-68
2021/11/09 05:32:28;;;;;;;58.38;3.55;;;0.50;1.00;;;;;;5142122;27;20203;-68
2021/11/09 05:34:56;;;;;;;58.17;3.40;;;0.50;1.00;;;;;;5142823;27;20593;-69
2021/11/09 05:37:28;;;;;;;58.05;3.17;;;0.50;1.00;;;;;;5142011;27;20195;-68
2021/11/09 05:39:58;;;;;;;59.97;4.45;;;0.40;1.00;;;;;;5142147;27;20203;-68
2021/11/09 05:42:25;;;;;;;58.28;3.40;;;0.40;1.00;;;;;;5141635;27;20202;-67
2021/11/09 05:44:52;;;;;;;58.45;3.15;;;0.40;1.00;;;;;;5141837;27;20647;-68
2021/11/09 05:47:19;;;;;;;58.28;3.17;;;0.40;1.00;;;;;;5141534;27;20230;-68
2021/11/09 05:49:46;;;;;;;59.00;3.80;;;0.40;1.00;;;;;;5141555;27;20199;-68
2021/11/09 05:52:14;;;;;;;58.47;3.00;;;0.40;1.00;;;;;;5141229;27;20248;-68
2021/11/09 05:54:42;;;;;;;58.67;3.35;;;0.40;1.00;;;;;;5141324;27;20218;-68
2021/11/09 05:57:09;;;;;;;58.53;3.22;;;0.30;1.00;;;;;;5140640;27;20237;-67
2021/11/09 05:59:36;;;;;;;58.55;3.40;;;0.30;1.00;;;;;;5143763;27;20209;-69
2021/11/09 06:02:03;;;;;;;58.70;3.30;;;0.30;1.00;;;;;;5144703;27;20317;-68
2021/11/09 06:04:30;;;;;;;58.60;3.30;;;0.30;1.00;;;;;;5142846;27;20226;-68
2021/11/09 06:06:57;;;;;;;58.70;3.17;;;0.30;1.00;;;;;;5144951;27;20586;-69
2021/11/09 06:09:25;;;;;;;58.60;3.15;;;0.40;1.00;;;;;;5145153;27;20223;-68
2021/11/09 06:11:52;;;;;;;58.55;3.20;;;0.20;1.00;;;;;;5144748;27;20250;-69
2021/11/09 06:14:19;;;;;;;58.45;3.05;;;0.30;1.00;;;;;;5145673;27;20198;-68
2021/11/09 06:16:45;;;;;;;59.60;3.85;;;0.20;1.00;;;;;;5145421;27;20282;-68
2021/11/09 06:19:13;;;;;;;58.55;3.05;;;0.20;1.00;;;;;;5145276;27;20270;-68
2021/11/09 06:21:40;;;;;;;58.58;3.60;;;0.20;1.00;;;;;;5145701;27;20250;-68
2021/11/09 06:24:07;;;;;;;58.67;3.53;;;0.20;1.00;;;;;;5144880;27;20706;-69
2021/11/09 06:26:35;;;;;;;58.70;3.20;;;0.20;1.00;;;;;;5144721;27;20314;-68
2021/11/09 06:29:03;;;;;;;58.47;3.20;;;0.20;1.00;;;;;;5145726;27;20211;-69
2021/11/09 06:31:31;;;;;;;58.67;3.08;;;0.20;1.00;;;;;;5145258;27;20277;-69
2021/11/09 06:33:58;;;;;;;58.58;3.20;;;0.10;1.00;;;;;;5144816;27;20257;-68
2021/11/09 06:36:25;;;;;;;58.38;3.10;;;0.10;1.00;;;;;;5144220;27;20295;-68
2021/11/09 06:38:52;;;;;;;58.50;3.20;;;0.10;1.00;;;;;;5145622;27;20739;-69
2021/11/09 06:41:19;;;;;;;58.47;3.30;;;0.10;1.00;;;;;;5144913;27;20706;-68
2021/11/09 06:43:47;;;;;;;58.38;3.40;;;0.20;1.00;;;;;;5144813;27;20213;-69
2021/11/09 06:46:14;;;;;;;58.38;3.20;;;0.20;1.00;;;;;;5144035;27;20599;-69
2021/11/09 06:48:43;;;;;;;58.38;3.20;;;0.20;1.00;;;;;;5144526;27;20285;-68
2021/11/09 06:51:10;;;;;;;58.47;3.20;;;0.10;1.00;;;;;;5144167;27;20579;-69
2021/11/09 06:53:37;;;;;;;58.28;2.90;;;0.20;1.00;;;;;;5143725;27;20206;-69
2021/11/09 06:56:05;;;;;;;58.38;3.20;;;0.30;1.00;;;;;;5144204;27;20209;-69
2021/11/09 06:58:34;;;;;;;58.47;3.78;;;0.30;1.00;;;;;;5145490;27;20293;-69
2021/11/09 07:01:03;;;;;;;58.38;3.05;;;0.30;1.00;;;;;;5145084;27;20219;-69
2021/11/09 07:03:33;;;;;;;58.30;2.80;;;0.40;1.00;;;;;;5145969;27;20230;-69
2021/11/09 07:06:00;;;;;;;58.38;3.40;;;0.40;1.00;;;;;;5145132;27;20227;-69
2021/11/09 07:08:27;;;;;;;58.65;4.03;;;0.40;1.00;;;;;;5145589;27;20228;-69
2021/11/09 07:10:54;;;;;;;58.25;3.03;;;0.50;1.00;;;;;;5139898;27;20223;-69
2021/11/09 07:13:20;;;;;;;58.47;3.10;;;0.50;1.00;;;;;;5146435;27;20234;-69
2021/11/09 07:15:48;;;;;;;58.47;2.97;;;0.60;1.00;;;;;;5146732;27;20203;-68
2021/11/09 07:18:16;;;;;;;58.67;3.10;;;0.60;1.00;;;;;;5146248;27;20206;-68
2021/11/09 07:20:43;;;;;;;58.45;3.10;;;0.70;1.00;;;;;;5145109;27;20317;-69
2021/11/09 07:23:10;;;;;;;58.47;3.10;;;0.70;1.00;;;;;;5144628;27;20561;-68
2021/11/09 07:25:37;;;;;;;58.50;3.30;;;0.80;1.00;;;;;;5145647;27;20217;-68
2021/11/09 07:28:04;;;;;;;58.35;2.85;;;0.80;1.00;;;;;;5146472;27;20213;-69
2021/11/09 07:30:41;;;;;;;58.47;3.00;;;0.90;1.00;;;;;;5145431;27;20258;-68
2021/11/09 07:33:08;;;;;;;58.05;2.90;;;0.90;1.00;;;;;;5146003;27;20734;-68
2021/11/09 07:35:36;;;;;;;58.00;3.00;;;1.00;1.00;;;;;;5146450;27;20222;-69
2021/11/09 07:38:03;;;;;;;58.45;3.20;;;1.10;1.00;;;;;;5143971;27;20634;-69
2021/11/09 07:40:30;;;;;;;58.47;3.10;;;1.20;1.00;;;;;;5144241;27;20313;-68
2021/11/09 07:42:57;;;;;;;58.53;3.35;;;1.30;1.00;;;;;;5143914;27;20238;-69
2021/11/09 07:45:24;;;;;;;58.38;3.22;;;1.40;1.00;;;;;;5146152;27;20242;-69
2021/11/09 07:47:54;;;;;;;58.30;3.13;;;1.40;1.00;;;;;;5146158;27;20246;-68
2021/11/09 07:50:21;;;;;;;58.28;3.17;;;1.50;1.00;;;;;;5145934;27;20272;-69
2021/11/09 07:52:53;;;;;;;58.80;3.28;;;1.60;1.00;;;;;;5145384;27;20241;-68
2021/11/09 07:55:21;;;;;;;58.47;3.25;;;1.70;1.00;;;;;;5143983;27;20239;-68
2021/11/09 07:57:51;;;;;;;58.38;3.17;;;1.80;1.00;;;;;;5144859;27;20252;-69
2021/11/09 08:00:25;;;;;;;59.75;4.45;;;1.90;1.00;;;;;;5143820;27;20272;-68
2021/11/09 08:03:07;;;;;;;58.60;2.88;;;2.00;1.00;;;;;;5144885;27;20221;-68
2021/11/09 08:05:37;;;;;;;58.45;2.78;;;2.10;1.00;;;;;;5143957;27;20328;-68
2021/11/09 08:08:08;;;;;;;58.38;3.00;;;2.20;1.00;;;;;;5144469;27;20226;-68
2021/11/09 08:10:36;;;;;;;58.45;3.00;;;2.30;1.00;;;;;;5143558;27;20263;-68
2021/11/09 08:13:02;;;;;;;58.13;3.10;;;2.40;1.00;;;;;;5142622;27;20705;-68
2021/11/09 08:15:29;;;;;;;58.38;2.97;;;2.50;1.00;;;;;;5141421;27;20234;-68
2021/11/09 08:17:56;;;;;;;58.35;3.00;;;2.60;1.00;;;;;;5141718;27;20262;-68
2021/11/09 08:20:23;;;;;;;58.25;2.90;;;2.70;1.00;;;;;;5141827;27;20290;-68
2021/11/09 08:22:50;;;;;;;58.47;3.00;;;2.80;1.00;;;;;;5141139;27;20275;-68
2021/11/09 08:25:21;;;;;;;58.38;2.90;;;2.80;1.00;;;;;;5141509;27;20269;-68
2021/11/09 08:27:48;;;;;;;58.38;3.00;;;3.00;1.00;;;;;;5136199;27;20233;-67
2021/11/09 08:30:15;;;;;;;58.25;2.70;;;3.10;1.00;;;;;;5133821;27;20317;-67
2021/11/09 08:32:43;;;;;;;58.45;3.00;;;3.30;1.00;;;;;;5135179;27;20758;-67
2021/11/09 08:35:11;;;;;;;62.75;3.90;;;3.40;1.00;;;;;;5134500;27;20260;-67
2021/11/09 08:37:39;;;;;;;58.30;2.90;;;3.50;1.00;;;;;;5134512;27;20203;-67
2021/11/09 08:40:13;;;;;;;58.17;2.90;;;3.60;1.00;;;;;;5134581;27;20250;-67
2021/11/09 08:42:47;;;;;;;58.20;2.80;;;3.70;1.00;;;;;;5134446;27;20252;-67
2021/11/09 08:45:21;;;;;;;58.40;2.70;;;3.80;1.00;;;;;;5135120;27;20671;-67
2021/11/09 08:47:52;;;;;;;58.25;2.70;;;3.90;1.00;;;;;;5135338;27;20218;-68
2021/11/09 08:50:20;;;;;;;58.40;2.83;;;4.00;1.00;;;;;;5138181;27;20698;-68
2021/11/09 08:52:47;;;;;;;58.65;3.45;;;4.10;1.00;;;;;;5139693;27;20202;-67
2021/11/09 08:55:28;;;;;;;58.30;3.00;;;4.20;1.00;;;;;;5139945;27;20210;-68
2021/11/09 08:58:21;;;;;;;58.35;3.20;;;4.30;1.00;;;;;;5140843;27;20203;-68
2021/11/09 09:06:18;;;;;;;58.28;2.90;;;4.70;1.00;;;;;;5136739;27;20206;-69
2021/11/09 09:08:44;;;;;;;58.08;2.85;;;4.90;1.00;;;;;;5137245;27;20234;-68
2021/11/09 09:11:12;;;;;;;58.35;2.63;;;5.10;1.00;;;;;;5136393;27;20225;-67
2021/11/09 09:13:40;;;;;;;58.15;2.90;;;5.30;1.00;;;;;;5139684;27;20206;-67
2021/11/09 09:16:07;;;;;;;58.20;2.75;;;5.50;1.00;;;;;;5141536;27;20203;-67
2021/11/09 09:18:34;;;;;;;58.40;2.90;;;5.70;1.00;;;;;;5137309;27;20202;-68
2021/11/09 09:21:08;;;;;;;58.50;3.20;;;6.10;1.00;;;;;;5136527;27;20271;-69
2021/11/09 09:23:40;;;;;;;58.45;3.05;;;6.40;1.00;;;;;;5137188;27;20191;-69
2021/11/09 09:26:17;;;;;;;59.08;3.20;;;6.80;1.00;;;;;;5137277;27;20256;-68
2021/11/09 09:31:54;;;;;;;58.07;2.80;;;7.70;1.00;;;;;;5107717;27;20221;-68
2021/11/09 09:53:58;;;;;;;58.57;2.77;;;14.60;1.00;;;;;;5141577;27;20489;-69
2021/11/09 09:56:30;;;;;;;58.87;3.33;;;15.90;1.00;;;;;;5140517;27;20958;-70
2021/11/09 09:58:57;;;;;;;58.10;3.07;;;17.20;1.00;;;;;;5140042;27;20455;-69
2021/11/09 10:01:25;;;;;;;58.37;3.23;;;18.30;1.00;;;;;;5139701;27;20464;-69
2021/11/09 10:03:52;;;;;;;58.67;3.30;;;19.30;1.00;;;;;;5139303;27;20515;-69
2021/11/09 10:06:19;;;;;;;58.70;3.50;;;20.00;1.00;;;;;;5138443;27;20531;-69
2021/11/09 10:08:48;;;;;;;58.27;2.83;;;20.60;1.00;;;;;;5138451;27;20485;-69
2021/11/09 10:11:32;;;;;;;58.37;2.80;;;21.20;1.00;;;;;;5137788;27;20469;-70
2021/11/09 10:13:59;;;;;;;59.20;2.90;;;21.90;1.00;;;;;;5139075;27;20550;-70
2021/11/09 10:16:28;;;;;;;58.40;2.80;;;22.80;1.00;;;;;;5138556;27;20531;-70
2021/11/09 10:18:55;;;;;;;58.17;2.53;;;23.50;1.00;;;;;;5138525;27;20543;-70
2021/11/09 10:21:32;;;;;;;57.97;2.80;;;24.00;1.00;;;;;;5138673;27;20555;-70
2021/11/09 10:23:59;;;;;;;58.47;2.53;;;24.60;1.00;;;;;;5138400;27;20956;-69
2021/11/09 10:26:27;;;;;;;58.37;2.53;;;25.40;1.00;;;;;;5139136;27;20472;-70
2021/11/09 10:28:54;;;;;;;58.20;2.70;;;25.80;1.00;;;;;;5140087;27;20491;-70
2021/11/09 10:31:21;;;;;;;57.70;2.00;;;26.10;1.00;;;;;;5138174;27;20510;-70
2021/11/09 10:33:51;;;;;;;57.80;2.20;;;26.00;1.00;;;;;;5138940;27;20476;-67
2021/11/09 10:36:20;;;;;;;58.67;3.47;;;26.10;1.00;;;;;;5138780;27;20455;-69
2021/11/09 10:38:48;;;;;;;57.73;2.23;;;26.30;1.00;;;;;;5139875;27;20485;-70
2021/11/09 10:41:16;;;;;;;57.70;2.20;;;26.70;1.00;;;;;;5139699;27;20497;-67
2021/11/09 10:43:45;;;;;;;57.57;2.00;;;26.70;1.00;;;;;;5140322;27;20452;-67
2021/11/09 10:46:26;;;;;;;58.20;2.27;;;27.00;1.00;;;;;;5142504;27;20448;-67
2021/11/09 10:48:54;;;;;;;57.70;2.10;;;27.20;1.00;;;;;;5144028;27;20520;-69
2021/11/09 10:51:21;;;;;;;57.70;2.13;;;27.40;1.00;;;;;;5143568;27;20472;-69
2021/11/09 10:53:52;;;;;;;57.57;2.10;;;27.70;1.00;;;;;;5143997;27;20537;-70
2021/11/09 10:56:32;;;;;;;57.97;2.40;;;28.00;99.90;;;;;;5144480;27;20459;-69
2021/11/09 11:04:33;;;;;;;57.67;1.93;;;28.90;99.90;;;;;;5142123;27;20465;-68
2021/11/09 11:07:03;;;;;;;58.93;2.77;;;28.30;99.90;;;;;;5141822;27;20507;-68
2021/11/09 11:09:30;;;;;;;57.70;2.20;;;28.10;99.90;;;;;;5142600;27;20857;-68
2021/11/09 11:11:59;;;;;;;58.73;2.97;;;28.20;99.90;;;;;;5141745;27;20468;-68
2021/11/09 11:14:29;;;;;;;57.43;1.90;;;28.90;99.90;;;;;;5140710;27;20449;-68
2021/11/09 11:16:59;;;;;;;57.53;2.00;;;29.40;99.90;;;;;;5141803;27;20451;-69
2021/11/09 11:19:27;;;;;;;57.37;2.00;;;29.90;99.90;;;;;;5142744;27;20455;-68
2021/11/09 11:21:57;;;;;;;57.57;2.33;;;30.30;99.90;;;;;;5141483;27;20502;-68
2021/11/09 11:24:25;;;;;;;57.67;2.00;;;30.10;99.90;;;;;;5140990;27;20818;-69
2021/11/09 11:26:54;;;;;;;57.90;2.50;;;29.00;99.90;;;;;;5139884;27;20887;-67
2021/11/09 11:29:24;;;;;;;57.90;2.20;;;27.70;99.90;;;;;;5139465;27;20512;-69
2021/11/09 11:31:52;;;;;;;57.63;2.10;;;28.20;99.90;;;;;;5137836;27;20479;-67
2021/11/09 11:34:21;;;;;;;57.70;2.20;;;28.90;99.90;;;;;;5139147;27;20459;-69
2021/11/09 11:36:49;;;;;;;57.80;2.00;;;29.60;99.90;;;;;;5139361;27;20955;-69
2021/11/09 11:39:21;;;;;;;59.20;4.00;;;29.80;99.90;;;;;;5138035;27;20939;-69
2021/11/09 11:41:52;;;;;;;57.60;1.93;;;29.70;99.90;;;;;;5138023;27;20540;-69
2021/11/09 11:44:22;;;;;;;57.60;2.00;;;30.10;99.90;;;;;;5140592;27;20999;-69
2021/11/09 11:46:57;;;;;;;57.60;1.80;;;30.60;99.90;;;;;;5139296;27;20449;-69
2021/11/09 11:49:27;;;;;;;58.10;2.10;;;30.90;99.90;;;;;;5139775;27;20451;-69
2021/11/09 11:52:18;;;;;;;57.30;1.87;;;30.80;99.90;;;;;;5139514;27;20555;-69
2021/11/09 11:55:00;;;;;;;57.53;2.00;;;31.00;99.90;;;;;;5136055;27;20455;-66
2021/11/09 11:57:53;;;;;;;57.27;1.90;;;31.00;99.90;;;;;;5139599;27;20511;-67
2021/11/09 12:00:40;;;;;;;57.53;1.90;;;31.30;99.90;;;;;;5143791;27;20534;-68
2021/11/09 12:03:48;;;;;;;57.13;1.80;;;30.70;99.90;;;;;;5143346;27;20449;-69
2021/11/09 12:06:26;;;;;;;57.67;2.00;;;31.20;99.90;;;;;;5091214;27;20457;-65
2021/11/09 12:08:55;;;;;;;57.27;1.90;;;31.50;99.90;;;;;;5148178;27;20497;-67
2021/11/09 12:11:46;;;;;;;57.50;2.00;;;31.50;99.90;;;;;;5145981;27;20457;-66
2021/11/09 12:14:17;;;;;;;57.27;1.90;;;31.30;99.90;;;;;;5128347;28;20460;-67
2021/11/09 12:16:54;;;;;;;57.40;2.10;;;31.40;99.90;;;;;;5129000;28;20527;-67
2021/11/09 12:19:58;;;;;;;57.37;1.90;;;31.40;99.90;;;;;;5129083;28;20487;-66
2021/11/09 12:22:37;;;;;;;57.40;2.00;;;31.10;99.90;;;;;;5130622;28;20433;-70
2021/11/09 12:25:06;;;;;;;57.10;1.83;;;31.30;99.90;;;;;;5129459;28;20438;-67
2021/11/09 12:28:02;;;;;;;57.30;2.10;;;32.60;99.90;;;;;;5129697;28;20446;-67
2021/11/09 12:30:52;;;;;;;57.17;1.97;;;33.00;99.90;;;;;;5130221;28;20992;-67
2021/11/09 12:33:21;;;;;;;57.67;2.00;;;33.10;99.90;;;;;;5131006;28;20453;-67
2021/11/09 12:35:50;;;;;;;57.47;1.97;;;33.70;99.90;;;;;;5129720;27;20458;-67
2021/11/09 12:38:19;;;;;;;57.57;2.23;;;33.90;99.90;;;;;;5129735;28;20471;-67
2021/11/09 12:40:50;;;;;;;57.67;2.20;;;34.10;99.90;;;;;;5128629;28;20502;-67
2021/11/09 12:43:24;;;;;;;57.27;2.23;;;33.80;99.90;;;;;;5128551;28;20460;-67
2021/11/09 12:46:00;;;;;;;58.00;2.40;;;33.70;99.90;;;;;;5141498;27;20460;-66
2021/11/09 12:48:29;;;;;;;57.50;2.10;;;33.60;99.90;;;;;;5147126;27;20442;-66
2021/11/09 12:50:58;;;;;;;57.50;2.20;;;33.60;99.90;;;;;;5146442;27;20464;-67
2021/11/09 12:53:27;;;;;;;57.70;2.20;;;33.50;99.90;;;;;;5147256;27;20454;-66
2021/11/09 12:56:14;;;;;;;57.43;2.07;;;33.70;99.90;;;;;;5147490;27;20449;-67
2021/11/09 12:58:51;;;;;;;57.07;1.90;;;33.70;99.90;;;;;;5147399;27;20525;-67
2021/11/09 13:01:27;;;;;;;57.37;2.00;;;34.20;99.90;;;;;;5148015;27;20493;-67
2021/11/09 13:04:03;;;;;;;57.07;1.90;;;34.20;99.90;;;;;;5149542;27;20450;-67
2021/11/09 13:06:41;;;;;;;57.40;2.30;;;33.50;99.90;;;;;;5148810;27;20453;-67
2021/11/09 13:09:15;;;;;;;57.63;2.23;;;33.70;99.90;;;;;;5147855;27;20605;-67
2021/11/09 13:11:46;;;;;;;57.10;2.30;;;34.00;99.90;;;;;;5148292;27;20532;-67
2021/11/09 13:14:15;;;;;;;57.13;2.00;;;33.90;99.90;;;;;;5148410;27;20448;-67
2021/11/09 13:16:44;;;;;;;57.80;2.47;;;34.20;99.90;;;;;;5147112;27;20881;-68
2021/11/09 13:19:11;;;;;;;57.50;2.20;;;34.60;99.90;;;;;;5146318;27;20484;-67
2021/11/09 13:21:40;;;;;;;57.30;2.00;;;34.90;99.90;;;;;;5148111;27;20495;-68
2021/11/09 13:24:09;;;;;;;57.37;1.97;;;34.90;99.90;;;;;;5148610;27;20470;-67
2021/11/09 13:26:38;;;;;;;57.10;2.10;;;34.40;99.90;;;;;;5147348;27;20452;-68
2021/11/09 13:29:06;;;;;;;57.27;1.90;;;35.00;99.90;;;;;;5148022;27;20452;-68
2021/11/09 13:31:36;;;;;;;58.93;2.07;;;35.10;99.90;;;;;;5148905;27;20514;-68
2021/11/09 13:34:05;;;;;;;57.17;2.10;;;35.60;99.90;;;;;;5148790;27;20471;-68
2021/11/09 13:36:33;;;;;;;56.83;2.10;;;36.00;99.90;;;;;;5147417;27;20447;-67
2021/11/09 13:39:00;;;;;;;56.87;1.90;;;35.30;99.90;;;;;;5147668;27;20488;-67
2021/11/09 13:41:31;;;;;;;57.00;1.90;;;35.50;99.90;;;;;;5148526;27;20487;-68
2021/11/09 13:44:02;;;;;;;57.40;2.20;;;35.70;99.90;;;;;;5147560;27;20445;-68
2021/11/09 13:46:31;;;;;;;57.17;2.27;;;35.60;99.90;;;;;;5147805;27;20515;-68
2021/11/09 13:49:02;;;;;;;57.40;2.10;;;35.20;99.90;;;;;;5147706;27;20471;-68
2021/11/09 13:51:31;;;;;;;57.57;2.27;;;35.00;99.90;;;;;;5146647;27;20465;-68
2021/11/09 13:54:00;;;;;;;57.07;1.80;;;34.40;99.90;;;;;;5147366;27;20538;-68
2021/11/09 13:56:28;;;;;;;56.97;1.80;;;34.40;99.90;;;;;;5147643;27;20453;-68
2021/11/09 13:58:57;;;;;;;57.10;2.20;;;34.10;99.90;;;;;;5148704;27;20507;-68
2021/11/09 14:01:40;;;;;;;56.90;2.00;;;34.10;99.90;;;;;;5148166;27;20556;-67
2021/11/09 14:04:27;;;;;;;57.20;1.90;;;34.60;99.90;;;;;;5149002;27;20464;-68
2021/11/09 14:07:17;;;;;;;57.07;1.90;;;34.80;99.90;;;;;;5147860;27;20532;-68
2021/11/09 14:12:54;;;;;;;57.20;1.97;;;35.10;99.90;;;;;;5149272;27;20429;-68
2021/11/09 14:15:41;;;;;;;56.97;1.80;;;35.40;99.90;;;;;;5148104;27;20518;-68
2021/11/09 14:18:13;;;;;;;57.50;1.90;;;35.20;99.90;;;;;;5148205;27;20615;-68
2021/11/09 14:20:51;;;;;;;56.87;1.80;;;34.70;99.90;;;;;;5150317;27;20476;-68
2021/11/09 14:23:27;;;;;;;56.80;1.70;;;34.50;99.90;;;;;;5150314;27;20444;-68
2021/11/09 14:25:54;;;;;;;57.00;1.90;;;34.10;99.90;;;;;;5151017;27;20543;-68
2021/11/09 14:28:33;;;;;;;58.30;2.00;;;33.60;99.90;;;;;;5151796;27;20477;-69
2021/11/09 14:31:15;;;;;;;57.27;2.00;;;33.20;99.90;;;;;;5150967;27;20474;-69
2021/11/09 14:33:48;;;;;;;57.47;2.17;;;33.10;99.90;;;;;;5150863;27;20452;-67
2021/11/09 14:36:31;;;;;;;57.13;1.90;;;32.30;99.90;;;;;;5149582;27;20508;-68
2021/11/09 14:39:09;;;;;;;57.47;2.00;;;31.30;99.90;;;;;;5151520;27;20490;-68
2021/11/09 14:41:40;;;;;;;57.20;2.00;;;30.10;99.90;;;;;;5152722;27;20456;-68
2021/11/09 14:44:09;;;;;;;58.30;2.20;;;29.50;99.90;;;;;;5152897;27;20451;-68
2021/11/09 14:46:39;;;;;;;57.57;2.00;;;29.50;99.90;;;;;;5152224;27;20445;-67